createdAt,value
2019-06-10T00:00:13.493Z,14.03
2019-06-10T00:02:41.405Z,18.77
2019-06-10T00:05:11.982Z,14.13
2019-06-10T00:07:42.508Z,16.27
2019-06-10T00:10:14.471Z,14.77
2019-06-10T00:12:44.867Z,14.53
2019-06-10T00:15:15.243Z,13.70
2019-06-10T00:17:54.839Z,14.47
2019-06-10T00:20:17.804Z,15.20
2019-06-10T00:22:48.181Z,15.77
2019-06-10T00:25:20.866Z,14.27
2019-06-10T00:27:51.246Z,17.87
2019-06-10T00:30:21.696Z,16.17
2019-06-10T00:32:52.175Z,13.67
2019-06-10T00:35:22.655Z,17.50
2019-06-10T00:37:53.037Z,16.43
2019-06-10T00:40:23.426Z,14.13
2019-06-10T00:42:53.779Z,14.77
2019-06-10T00:45:24.259Z,14.20
2019-06-10T00:48:08.576Z,14.73
2019-06-10T00:50:26.863Z,14.73
2019-06-10T00:52:57.239Z,15.13
2019-06-10T00:55:27.671Z,14.33
2019-06-10T00:58:01.068Z,14.60
2019-06-10T01:00:32.235Z,13.37
2019-06-10T01:03:03.870Z,16.27
2019-06-10T01:05:34.381Z,15.73
2019-06-10T01:08:04.875Z,15.53
2019-06-10T01:10:35.408Z,13.20
2019-06-10T01:13:06.982Z,14.17
2019-06-10T01:15:37.432Z,14.30
2019-06-10T01:18:22.113Z,14.90
2019-06-10T01:20:41.228Z,12.80
2019-06-10T01:23:15.501Z,18.33
2019-06-10T01:25:44.308Z,13.37
2019-06-10T01:28:16.835Z,15.47
2019-06-10T01:30:46.793Z,14.50
2019-06-10T01:33:17.623Z,14.07
2019-06-10T01:35:48.113Z,13.37
2019-06-10T01:38:21.075Z,14.50
2019-06-10T01:40:51.230Z,15.27
2019-06-10T01:43:21.606Z,15.63
2019-06-10T01:45:51.945Z,15.60
2019-06-10T01:48:22.419Z,15.40
2019-06-10T01:50:52.965Z,14.07
2019-06-10T01:53:23.466Z,14.33
2019-06-10T01:55:53.888Z,15.13
2019-06-10T01:58:24.247Z,15.73
2019-06-10T02:01:04.487Z,13.13
2019-06-10T02:03:34.926Z,16.43
2019-06-10T02:06:05.522Z,15.00
2019-06-10T02:08:35.995Z,13.87
2019-06-10T02:11:06.512Z,12.87
2019-06-10T02:13:36.919Z,14.47
2019-06-10T02:16:07.353Z,15.27
2019-06-10T02:18:37.705Z,15.37
2019-06-10T02:21:11.558Z,15.57
2019-06-10T02:23:41.257Z,15.00
2019-06-10T02:26:14.572Z,14.77
2019-06-10T02:28:43.850Z,14.37
2019-06-10T02:31:17.499Z,14.13
2019-06-10T02:33:46.481Z,13.37
2019-06-10T02:36:20.184Z,16.77
2019-06-10T02:38:49.448Z,15.13
2019-06-10T02:41:24.067Z,15.20
2019-06-10T02:43:53.406Z,16.53
2019-06-10T02:46:30.652Z,18.63
2019-06-10T02:48:56.087Z,17.20
2019-06-10T02:51:30.845Z,17.37
2019-06-10T02:53:59.134Z,16.83
2019-06-10T02:56:34.985Z,18.30
2019-06-10T02:59:03.366Z,17.43
2019-06-10T03:01:37.915Z,16.47
2019-06-10T03:04:05.780Z,16.67
2019-06-10T03:06:39.762Z,15.77
2019-06-10T03:09:08.426Z,17.07
2019-06-10T03:11:38.847Z,16.67
2019-06-10T03:14:09.442Z,15.73
2019-06-10T03:16:52.585Z,16.63
2019-06-10T03:19:38.381Z,16.67
2019-06-10T03:21:54.497Z,15.93
2019-06-10T03:24:25.370Z,16.60
2019-06-10T03:26:55.805Z,14.00
2019-06-10T03:29:27.874Z,13.67
2019-06-10T03:31:58.332Z,17.70
2019-06-10T03:34:36.300Z,16.03
2019-06-10T03:37:02.490Z,16.80
2019-06-10T03:39:33.037Z,14.00
2019-06-10T03:42:03.528Z,14.90
2019-06-10T03:44:34.005Z,15.30
2019-06-10T03:47:04.401Z,14.63
2019-06-10T03:49:49.025Z,16.63
2019-06-10T03:52:07.043Z,13.57
2019-06-10T03:54:37.496Z,16.93
2019-06-10T03:57:07.877Z,17.00
2019-06-10T03:59:38.835Z,12.83
2019-06-10T04:02:09.572Z,14.93
2019-06-10T04:04:40.097Z,14.57
2019-06-10T04:07:10.507Z,13.07
2019-06-10T04:09:42.517Z,12.07
2019-06-10T04:12:13.002Z,15.67
2019-06-10T04:14:43.377Z,13.10
2019-06-10T04:17:13.947Z,15.67
2019-06-10T04:19:44.449Z,15.03
2019-06-10T04:22:14.894Z,14.73
2019-06-10T04:24:45.402Z,12.90
2019-06-10T04:27:15.871Z,20.67
2019-06-10T04:29:46.233Z,14.43
2019-06-10T04:32:16.679Z,14.77
2019-06-10T04:34:47.125Z,16.30
2019-06-10T04:37:18.356Z,15.00
2019-06-10T04:39:48.851Z,14.40
2019-06-10T04:42:20.884Z,14.83
2019-06-10T04:44:52.573Z,15.43
2019-06-10T04:47:24.946Z,15.37
2019-06-10T04:49:55.119Z,14.17
2019-06-10T04:52:26.687Z,14.27
2019-06-10T04:54:57.643Z,14.80
2019-06-10T04:57:29.301Z,19.33
2019-06-10T05:00:02.552Z,14.10
2019-06-10T05:02:33.055Z,17.60
2019-06-10T05:05:03.825Z,13.67
2019-06-10T05:07:37.111Z,15.97
2019-06-10T05:10:06.723Z,19.50
2019-06-10T05:12:37.184Z,13.90
2019-06-10T05:15:08.045Z,14.50
2019-06-10T05:17:38.806Z,15.23
2019-06-10T05:20:09.578Z,12.50
2019-06-10T05:22:42.197Z,16.07
2019-06-10T05:25:12.879Z,13.57
2019-06-10T05:27:43.517Z,11.63
2019-06-10T05:30:14.119Z,16.37
2019-06-10T05:32:44.589Z,14.67
2019-06-10T05:35:15.242Z,11.40
2019-06-10T05:37:45.703Z,14.03
2019-06-10T05:40:16.803Z,14.77
2019-06-10T05:42:47.221Z,14.20
2019-06-10T05:45:17.773Z,12.53
2019-06-10T05:47:48.717Z,13.23
2019-06-10T05:50:21.829Z,12.83
2019-06-10T05:52:52.068Z,12.57
2019-06-10T05:55:23.995Z,12.53
2019-06-10T05:57:55.006Z,11.63
2019-06-10T06:00:26.096Z,12.87
2019-06-10T06:02:56.904Z,12.45
2019-06-10T06:05:27.982Z,12.73
2019-06-10T06:08:05.707Z,12.98
2019-06-10T06:10:33.909Z,12.00
2019-06-10T06:13:03.298Z,9.85
2019-06-10T06:15:35.802Z,8.65
2019-06-10T06:18:10.122Z,9.35
2019-06-10T06:20:37.891Z,9.35
2019-06-10T06:23:12.236Z,10.55
2019-06-10T06:25:46.356Z,9.18
2019-06-10T06:28:16.200Z,9.08
2019-06-10T06:30:46.904Z,8.90
2019-06-10T06:33:17.304Z,7.60
2019-06-10T06:35:47.706Z,7.33
2019-06-10T06:38:18.096Z,7.65
2019-06-10T06:40:48.470Z,10.80
2019-06-10T06:43:18.889Z,11.05
2019-06-10T06:45:49.273Z,7.65
2019-06-10T06:48:19.721Z,7.75
2019-06-10T06:51:03.048Z,9.73
2019-06-10T06:53:32.691Z,8.43
2019-06-10T06:55:55.987Z,8.55
2019-06-10T06:58:26.475Z,7.80
2019-06-10T07:01:07.405Z,9.80
2019-06-10T07:03:29.755Z,6.80
2019-06-10T07:06:02.727Z,9.90
2019-06-10T07:08:36.090Z,7.55
2019-06-10T07:15:28.055Z,8.65
2019-06-10T07:18:53.919Z,6.08
2019-06-10T07:22:17.618Z,5.85
2019-06-10T07:25:42.245Z,1.10
2019-06-10T07:28:12.511Z,0.10
2019-06-10T07:30:51.121Z,0.10
2019-06-10T07:33:15.152Z,0.00
2019-06-10T07:35:45.755Z,0.03
2019-06-10T07:38:16.340Z,0.00
2019-06-10T07:40:46.962Z,0.00
2019-06-10T07:43:18.713Z,0.00
2019-06-10T07:45:53.378Z,0.10
2019-06-10T07:48:23.748Z,0.00
2019-06-10T07:50:54.302Z,0.10
2019-06-10T07:53:24.870Z,0.10
2019-06-10T07:55:55.340Z,0.10
2019-06-10T07:58:25.843Z,0.00
2019-06-10T08:00:56.321Z,0.00
2019-06-10T08:03:27.023Z,0.00
2019-06-10T08:05:57.543Z,0.00
2019-06-10T08:08:28.240Z,0.10
2019-06-10T08:10:58.851Z,0.10
2019-06-10T08:13:32.077Z,0.00
2019-06-10T08:16:02.904Z,0.10
2019-06-10T08:18:44.548Z,0.00
2019-06-10T08:21:05.977Z,0.10
2019-06-10T08:23:37.462Z,0.10
2019-06-10T08:26:09.242Z,0.05
2019-06-10T08:28:39.829Z,0.10
2019-06-10T08:31:12.405Z,0.00
2019-06-10T08:33:47.041Z,0.00
2019-06-10T08:36:15.429Z,0.10
2019-06-10T08:38:48.639Z,0.10
2019-06-10T08:41:18.144Z,0.10
2019-06-10T08:43:48.959Z,0.10
2019-06-10T08:46:22.342Z,0.10
2019-06-10T08:48:52.700Z,0.10
2019-06-10T08:51:23.950Z,0.10
2019-06-10T08:53:55.003Z,0.10
2019-06-10T08:56:25.599Z,0.10
2019-06-10T08:58:56.086Z,0.10
2019-06-10T09:01:26.627Z,0.10
2019-06-10T09:03:57.106Z,0.10
2019-06-10T09:06:27.704Z,0.10
2019-06-10T09:08:59.069Z,0.10
2019-06-10T09:11:32.722Z,0.10
2019-06-10T09:14:02.757Z,0.10
2019-06-10T09:16:33.329Z,0.10
2019-06-10T09:19:03.849Z,0.10
2019-06-10T09:21:34.539Z,0.10
2019-06-10T09:24:05.224Z,0.10
2019-06-10T09:26:37.601Z,0.10
2019-06-10T09:29:08.485Z,0.10
2019-06-10T09:31:40.355Z,0.20
2019-06-10T09:34:12.759Z,0.20
2019-06-10T09:36:46.612Z,0.20
2019-06-10T09:39:14.991Z,0.20
2019-06-10T09:41:55.405Z,0.10
2019-06-10T09:44:19.567Z,0.10
2019-06-10T09:46:55.785Z,0.10
2019-06-10T09:49:24.106Z,0.10
2019-06-10T09:51:57.305Z,0.10
2019-06-10T09:54:26.693Z,0.10
2019-06-10T09:56:57.167Z,0.10
2019-06-10T09:59:27.620Z,0.10
2019-06-10T10:02:02.748Z,0.10
2019-06-10T10:04:32.729Z,0.10
2019-06-10T10:07:03.203Z,0.10
2019-06-10T10:09:37.045Z,0.10
2019-06-10T10:12:06.591Z,0.10
2019-06-10T10:14:37.095Z,0.10
2019-06-10T10:20:14.871Z,0.10
2019-06-10T10:22:47.047Z,0.10
2019-06-10T10:25:17.393Z,0.10
2019-06-10T10:27:51.405Z,0.10
2019-06-10T10:30:26.582Z,0.10
2019-06-10T10:32:57.101Z,0.10
2019-06-10T10:35:27.889Z,0.10
2019-06-10T10:37:58.372Z,0.00
2019-06-10T10:40:29.073Z,0.10
2019-06-10T10:43:19.940Z,0.10
2019-06-10T10:45:32.900Z,0.10
2019-06-10T10:48:03.349Z,0.10
2019-06-10T10:50:34.223Z,0.10
2019-06-10T10:53:04.719Z,0.00
2019-06-10T10:55:35.270Z,0.10
2019-06-10T10:58:06.631Z,0.10
2019-06-10T11:00:46.825Z,0.00
2019-06-10T11:03:16.647Z,0.00
2019-06-10T11:05:49.612Z,0.00
2019-06-10T11:08:19.622Z,0.00
2019-06-10T11:10:55.499Z,0.10
2019-06-10T11:13:25.508Z,0.00
2019-06-10T11:15:57.139Z,0.00
2019-06-10T11:18:28.093Z,0.08
2019-06-10T11:21:01.774Z,0.00
2019-06-10T11:23:34.275Z,0.10
2019-06-10T11:26:02.714Z,0.00
2019-06-10T11:28:33.164Z,0.00
2019-06-10T11:31:04.011Z,0.00
2019-06-10T11:33:34.619Z,0.10
2019-06-10T11:36:05.264Z,0.10
2019-06-10T11:38:35.661Z,0.00
2019-06-10T11:41:06.129Z,0.10
2019-06-10T11:43:36.474Z,0.10
2019-06-10T11:46:07.898Z,0.10
2019-06-10T11:48:38.676Z,0.10
2019-06-10T11:51:09.152Z,0.15
2019-06-10T11:53:39.636Z,0.20
2019-06-10T11:56:10.057Z,0.70
2019-06-10T11:58:42.536Z,0.35
2019-06-10T12:01:13.443Z,0.30
2019-06-10T12:03:44.036Z,0.37
2019-06-10T12:06:14.681Z,0.47
2019-06-10T12:08:45.261Z,0.45
2019-06-10T12:11:15.633Z,0.65
2019-06-10T12:13:46.001Z,1.00
2019-06-10T12:18:49.113Z,0.50
2019-06-10T12:21:19.768Z,0.30
2019-06-10T12:23:53.301Z,0.33
2019-06-10T12:26:23.467Z,0.37
2019-06-10T12:28:56.267Z,0.20
2019-06-10T12:31:26.080Z,0.37
2019-06-10T12:33:57.638Z,0.30
2019-06-10T12:36:28.966Z,0.20
2019-06-10T12:39:06.758Z,0.30
2019-06-10T12:41:33.153Z,0.20
2019-06-10T12:44:04.648Z,0.10
2019-06-10T12:46:35.189Z,0.10
2019-06-10T12:49:08.458Z,0.13
2019-06-10T12:51:38.073Z,0.10
2019-06-10T12:54:08.781Z,0.10
2019-06-10T12:56:39.538Z,0.13
2019-06-10T12:59:13.669Z,0.20
2019-06-10T13:01:44.797Z,0.13
2019-06-10T13:04:15.507Z,0.20
2019-06-10T13:06:47.801Z,0.13
2019-06-10T13:09:19.410Z,0.20
2019-06-10T13:11:52.599Z,0.37
2019-06-10T13:14:22.230Z,0.20
2019-06-10T13:16:52.813Z,0.20
2019-06-10T13:19:23.352Z,0.30
2019-06-10T13:21:55.086Z,0.23
2019-06-10T13:24:25.597Z,0.40
2019-06-10T13:26:56.598Z,0.42
2019-06-10T13:29:26.975Z,0.42
2019-06-10T13:31:58.041Z,0.50
2019-06-10T13:34:28.953Z,0.30
2019-06-10T13:36:59.424Z,0.30
2019-06-10T13:39:29.817Z,0.88
2019-06-10T13:42:03.262Z,0.35
2019-06-10T13:44:32.359Z,0.33
2019-06-10T13:47:07.126Z,0.40
2019-06-10T13:49:36.074Z,0.42
2019-06-10T13:52:11.583Z,0.40
2019-06-10T13:54:39.049Z,0.42
2019-06-10T13:57:11.648Z,0.50
2019-06-10T13:59:42.737Z,0.55
2019-06-10T14:02:13.876Z,0.47
2019-06-10T14:04:44.268Z,0.42
2019-06-10T14:07:17.417Z,0.70
2019-06-10T14:09:46.819Z,0.80
2019-06-10T14:12:17.898Z,1.00
2019-06-10T14:14:48.721Z,0.88
2019-06-10T14:17:22.130Z,1.15
2019-06-10T14:19:51.546Z,1.45
2019-06-10T14:22:22.869Z,1.42
2019-06-10T14:24:54.200Z,1.65
2019-06-10T14:27:25.622Z,2.65
2019-06-10T14:29:56.768Z,2.45
2019-06-10T14:33:04.234Z,2.75
2019-06-10T14:35:35.423Z,3.30
2019-06-10T14:38:06.468Z,2.83
2019-06-10T14:40:37.116Z,2.50
2019-06-10T14:43:08.245Z,3.00
2019-06-10T14:45:39.188Z,2.83
2019-06-10T14:48:11.491Z,4.03
2019-06-10T14:50:43.551Z,7.03
2019-06-10T14:53:15.654Z,6.50
2019-06-10T14:55:46.135Z,9.43
2019-06-10T14:58:19.282Z,6.90
2019-06-10T15:00:49.091Z,7.37
2019-06-10T15:03:20.650Z,9.18
2019-06-10T15:05:52.965Z,8.03
2019-06-10T15:08:23.329Z,8.55
2019-06-10T15:10:53.897Z,8.95
2019-06-10T15:13:24.288Z,11.18
2019-06-10T15:15:54.786Z,9.88
2019-06-10T15:18:25.208Z,8.40
2019-06-10T15:20:55.617Z,9.73
2019-06-10T15:23:26.029Z,7.53
2019-06-10T15:25:57.213Z,11.03
2019-06-10T15:28:27.838Z,8.13
2019-06-10T15:30:58.849Z,10.08
2019-06-10T15:33:32.390Z,11.45
2019-06-10T15:36:02.308Z,6.87
2019-06-10T15:38:33.059Z,8.08
2019-06-10T15:41:03.407Z,8.30
2019-06-10T15:43:33.771Z,9.25
2019-06-10T15:46:04.182Z,8.00
2019-06-10T15:48:34.564Z,7.05
2019-06-10T15:51:05.167Z,8.23
2019-06-10T15:53:35.638Z,9.60
2019-06-10T15:56:14.465Z,7.60
2019-06-10T15:58:38.773Z,8.25
2019-06-10T16:01:09.452Z,9.28
2019-06-10T16:03:42.216Z,9.10
2019-06-10T16:06:12.193Z,10.53
2019-06-10T16:08:43.142Z,8.45
2019-06-10T16:11:16.546Z,9.68
2019-06-10T16:13:45.740Z,7.45
2019-06-10T16:16:16.870Z,7.42
2019-06-10T16:18:47.341Z,6.75
2019-06-10T16:21:19.116Z,9.15
2019-06-10T16:23:53.130Z,11.00
2019-06-10T16:26:25.294Z,8.60
2019-06-10T16:28:54.431Z,8.33
2019-06-10T16:31:27.187Z,8.53
2019-06-10T16:33:56.854Z,7.55
2019-06-10T16:36:28.092Z,8.80
2019-06-10T16:38:58.941Z,8.53
2019-06-10T16:41:31.863Z,8.33
2019-06-10T16:44:03.021Z,9.25
2019-06-10T16:46:33.436Z,8.33
2019-06-10T16:49:03.928Z,7.80
2019-06-10T16:51:34.333Z,8.70
2019-06-10T16:54:04.767Z,8.05
2019-06-10T16:56:35.282Z,8.95
2019-06-10T16:59:05.714Z,8.85
2019-06-10T17:01:36.124Z,7.72
2019-06-10T17:04:06.661Z,6.83
2019-06-10T17:06:37.138Z,6.87
2019-06-10T17:09:08.525Z,9.88
2019-06-10T17:11:39.298Z,6.90
2019-06-10T17:14:09.736Z,7.92
2019-06-10T17:16:40.794Z,9.08
2019-06-10T17:19:11.268Z,10.93
2019-06-10T17:21:42.276Z,8.08
2019-06-10T17:24:12.919Z,7.00
2019-06-10T17:26:43.289Z,9.23
2019-06-10T17:29:13.632Z,7.22
2019-06-10T17:31:44.151Z,10.72
2019-06-10T17:34:14.544Z,7.53
2019-06-10T17:36:44.881Z,9.03
2019-06-10T17:39:15.295Z,9.57
2019-06-10T17:41:45.792Z,11.08
2019-06-10T17:44:16.199Z,10.63
2019-06-10T17:46:46.566Z,9.15
2019-06-10T17:49:16.963Z,8.63
2019-06-10T17:51:47.370Z,12.15
2019-06-10T17:54:17.739Z,10.55
2019-06-10T17:56:48.774Z,9.75
2019-06-10T17:59:22.077Z,9.38
2019-06-10T18:01:52.689Z,10.70
2019-06-10T18:04:24.053Z,10.03
2019-06-10T18:06:55.241Z,10.32
2019-06-10T18:09:26.142Z,9.93
2019-06-10T18:11:56.737Z,10.60
2019-06-10T18:14:28.136Z,13.55
2019-06-10T18:16:58.946Z,10.40
2019-06-10T18:19:30.436Z,10.88
2019-06-10T18:22:02.902Z,12.60
2019-06-10T18:24:33.107Z,11.73
2019-06-10T18:27:03.822Z,11.33
2019-06-10T18:29:36.917Z,12.20
2019-06-10T18:32:06.443Z,12.27
2019-06-10T18:34:38.091Z,12.43
2019-06-10T18:37:08.622Z,12.97
2019-06-10T18:39:39.909Z,10.93
2019-06-10T18:42:12.668Z,12.13
2019-06-10T18:44:42.565Z,12.23
2019-06-10T18:47:13.512Z,12.37
2019-06-10T18:49:43.971Z,13.43
2019-06-10T18:52:14.310Z,11.80
2019-06-10T18:54:44.688Z,13.30
2019-06-10T18:57:16.625Z,14.23
2019-06-10T18:59:46.981Z,10.73
2019-06-10T19:02:17.356Z,11.00
2019-06-10T19:04:47.773Z,12.20
2019-06-10T19:07:18.196Z,11.28
2019-06-10T19:09:48.564Z,12.40
2019-06-10T19:12:18.995Z,14.15
2019-06-10T19:14:49.387Z,12.03
2019-06-10T19:17:19.788Z,12.45
2019-06-10T19:19:50.189Z,12.57
2019-06-10T19:22:22.542Z,14.20
2019-06-10T19:24:53.088Z,11.57
2019-06-10T19:27:24.037Z,13.67
2019-06-10T19:29:55.097Z,14.53
2019-06-10T19:32:25.497Z,12.37
2019-06-10T19:34:55.876Z,12.53
2019-06-10T19:37:26.275Z,13.67
2019-06-10T19:39:56.772Z,10.33
2019-06-10T19:42:27.110Z,14.23
2019-06-10T19:44:57.548Z,12.30
2019-06-10T19:47:28.502Z,13.33
2019-06-10T19:49:59.384Z,12.13
2019-06-10T19:52:32.498Z,15.43
2019-06-10T19:55:02.955Z,10.93
2019-06-10T19:57:34.256Z,15.10
2019-06-10T20:00:11.684Z,14.43
2019-06-10T20:02:39.681Z,12.97
2019-06-10T20:05:12.326Z,13.43
2019-06-10T20:07:48.443Z,14.07
2019-06-10T20:10:14.599Z,13.13
2019-06-10T20:12:46.651Z,14.13
2019-06-10T20:15:24.445Z,11.97
2019-06-10T20:17:54.996Z,12.63
2019-06-10T20:20:25.418Z,11.23
2019-06-10T20:22:57.493Z,15.70
2019-06-10T20:25:28.171Z,13.57
2019-06-10T20:27:58.582Z,15.63
2019-06-10T20:30:29.311Z,14.13
2019-06-10T20:33:03.046Z,13.73
2019-06-10T20:35:32.735Z,12.17
2019-06-10T20:38:05.029Z,14.90
2019-06-10T20:40:35.757Z,13.43
2019-06-10T20:43:06.251Z,15.50
2019-06-10T20:45:37.650Z,15.63
2019-06-10T20:48:08.586Z,15.20
2019-06-10T20:50:39.258Z,15.33
2019-06-10T20:53:17.441Z,16.20
2019-06-10T20:55:49.798Z,16.07
2019-06-10T20:58:13.840Z,14.60
2019-06-10T21:00:49.956Z,15.30
2019-06-10T21:03:16.401Z,15.57
2019-06-10T21:05:50.165Z,17.33
2019-06-10T21:08:22.640Z,18.47
2019-06-10T21:10:54.557Z,13.63
2019-06-10T21:13:25.271Z,16.10
2019-06-10T21:15:59.161Z,14.30
2019-06-10T21:18:28.145Z,15.47
2019-06-10T21:20:58.828Z,15.97
2019-06-10T21:23:29.670Z,15.87
2019-06-10T21:26:02.579Z,14.73
2019-06-10T21:28:32.700Z,14.43
2019-06-10T21:31:03.272Z,14.83
2019-06-10T21:33:33.683Z,15.97
2019-06-10T21:36:04.263Z,15.57
2019-06-10T21:38:34.676Z,12.83
2019-06-10T21:41:05.112Z,17.23
2019-06-10T21:43:35.587Z,18.17
2019-06-10T21:46:06.047Z,15.47
2019-06-10T21:48:36.488Z,16.90
2019-06-10T21:51:06.861Z,17.00
2019-06-10T21:53:37.364Z,19.83
2019-06-10T21:56:07.728Z,18.57
2019-06-10T21:58:38.236Z,17.50
2019-06-10T22:01:13.402Z,23.10
2019-06-10T22:03:43.477Z,19.57
2019-06-10T22:06:13.099Z,20.97
2019-06-10T22:08:44.179Z,19.27
2019-06-10T22:11:14.757Z,18.63
2019-06-10T22:13:46.130Z,22.73
2019-06-10T22:16:16.910Z,19.70
2019-06-10T22:18:49.118Z,21.27
2019-06-10T22:21:22.408Z,18.50
2019-06-10T22:23:55.044Z,18.77
2019-06-10T22:26:23.916Z,24.63
2019-06-10T22:28:56.263Z,20.40
2019-06-10T22:31:26.699Z,21.93
2019-06-10T22:33:57.783Z,21.00
2019-06-10T22:36:28.228Z,21.40
2019-06-10T22:38:59.413Z,23.00
2019-06-10T22:41:30.261Z,20.23
2019-06-10T22:44:03.304Z,24.57
2019-06-10T22:46:32.783Z,24.80
2019-06-10T22:49:03.227Z,25.10
2019-06-10T22:51:33.635Z,21.00
2019-06-10T22:54:04.206Z,26.63
2019-06-10T22:56:34.636Z,30.03
2019-06-10T22:59:05.095Z,22.87
2019-06-10T23:01:38.453Z,19.73
2019-06-10T23:04:08.915Z,20.77
2019-06-10T23:06:39.404Z,22.33
2019-06-10T23:09:09.813Z,18.87
2019-06-10T23:11:42.260Z,21.03
2019-06-10T23:14:12.470Z,17.10
2019-06-10T23:16:42.887Z,19.63
2019-06-10T23:19:13.297Z,16.63
2019-06-10T23:21:43.703Z,17.80
2019-06-10T23:24:14.304Z,15.80
2019-06-10T23:26:44.682Z,14.40
2019-06-10T23:29:15.057Z,17.20
2019-06-10T23:31:52.122Z,19.07
2019-06-10T23:34:19.836Z,23.70
2019-06-10T23:36:51.136Z,21.87
2019-06-10T23:39:23.747Z,25.90
2019-06-10T23:41:56.341Z,21.67
2019-06-10T23:44:26.507Z,26.00
2019-06-10T23:46:57.388Z,25.63
2019-06-10T23:49:28.064Z,23.53
2019-06-10T23:51:59.141Z,27.10
2019-06-10T23:54:29.658Z,26.20
2019-06-10T23:57:01.430Z,27.50
2019-06-10T23:59:33.284Z,31.80
